Terminal Aerodrome Forecast
Issued by NWS

Home | Current Version | Previous Version | Text Only | Print | Product List | Glossary On
Versions: 1 2 3 4 5 6 7 8 9 10 11 12 13 14 15 16 17 18 19
000
FTUS43 KMQT 291720
TAFSAW
TAF
KSAW 291720Z 2918/3018 33004KT P6SM SCT060
     FM300000 14003KT P6SM SCT060
     FM300500 21004KT P6SM FEW150
     FM301500 25004KT P6SM BKN050=

USA.gov is the U.S. government's official web portal to all federal, state and local government web resources and services.